Soervik — LNGJ — position and weather

sailwx.info

Track history (hours):
 
Tides and Currents Weather Stations Pressure Air Temp Water Temp Dewpoint Dewpoint Depression Visibility Wind Speed Wind Dir Waves Ship Positions

Soervik

Last reported at 2018-May-28 08:05 UTC. Time now 2018-Jul-23 02:07 UTC.
Position N 64°45' E 011°00'.
Warning: this ship's position is 55 days out of date.

Length 20 m; draft 3.5 m.

Type: Fishing. MMSI: 257577500.

Date/timePositionNaut miles runAvg speedWind from/ knotsBaromVisibWave heightAir tempDewpointWater temp
2018-May-28 08:05N 64°45' E 011°00'1 8.9
2018-May-28 08:00N 64°46' E 011°02'4 8.8
2018-May-28 07:30N 64°49' E 011°09'3 7.0
2018-May-28 07:00N 64°52' E 011°14'0 0.0
2018-May-28 06:29N 64°52' E 011°14'3 5.4
2018-May-28 06:00N 64°53' E 011°19'5 9.2
2018-May-28 05:29N 64°58' E 011°23'4 8.9
2018-May-28 04:59N 65°01' E 011°31'5 9.7
2018-May-28 04:30N 65°03' E 011°42'5 9.1
2018-May-28 03:58N 65°06' E 011°48'6 9.4
2018-May-28 03:18N 65°12' E 011°53'61 8.3
2018-May-27 19:57N 66°09' E 012°49'8 8.8
2018-May-27 19:00N 66°17' E 012°55'4 8.9
2018-May-27 18:30N 66°21' E 012°58'4 7.4
2018-May-27 18:00N 66°25' E 012°59'4 8.1
2018-May-27 17:30N 66°29' E 012°59'6 8.4
2018-May-27 16:45N 66°35' E 012°53'3 8.4
2018-May-27 16:24N 66°37' E 012°52'5 8.6
2018-May-27 15:49N 66°42' E 012°50'62 7.9
2018-May-27 08:00N 67°37' E 014°02'4 8.2
2018-May-27 07:30N 67°41' E 014°09'100 7.4
2018-May-26 17:57N 68°57' E 017°05'4 7.7
2018-May-26 17:28N 68°59' E 017°12'8 7.4
2018-May-26 16:21N 69°06' E 017°27'3 7.5
2018-May-26 16:00N 69°07' E 017°34'4 7.3
2018-May-26 15:30N 69°08' E 017°43'  
Track history (hours):
 
Tides and Currents Weather Stations Pressure Air Temp Water Temp Dewpoint Dewpoint Depression Visibility Wind Speed Wind Dir Waves Ship Positions

Soervik

Last reported at 2018-May-28 08:05 UTC. Time now 2018-Jul-23 02:07 UTC.
Position N 64°45' E 011°00'.
Warning: this ship's position is 55 days out of date.

Length 20 m; draft 3.5 m.

Type: Fishing. MMSI: 257577500.

Date/timePositionNaut miles runAvg speedWind from/ knotsBaromVisibWave heightAir tempDewpointWater temp
2018-May-28 08:05N 64°45' E 011°00'1 8.9
2018-May-28 08:00N 64°46' E 011°02'4 8.8
2018-May-28 07:30N 64°49' E 011°09'3 7.0
2018-May-28 07:00N 64°52' E 011°14'0 0.0
2018-May-28 06:29N 64°52' E 011°14'3 5.4
2018-May-28 06:00N 64°53' E 011°19'5 9.2
2018-May-28 05:29N 64°58' E 011°23'4 8.9
2018-May-28 04:59N 65°01' E 011°31'5 9.7
2018-May-28 04:30N 65°03' E 011°42'5 9.1
2018-May-28 03:58N 65°06' E 011°48'6 9.4
2018-May-28 03:18N 65°12' E 011°53'61 8.3
2018-May-27 19:57N 66°09' E 012°49'8 8.8
2018-May-27 19:00N 66°17' E 012°55'4 8.9
2018-May-27 18:30N 66°21' E 012°58'4 7.4
2018-May-27 18:00N 66°25' E 012°59'4 8.1
2018-May-27 17:30N 66°29' E 012°59'6 8.4
2018-May-27 16:45N 66°35' E 012°53'3 8.4
2018-May-27 16:24N 66°37' E 012°52'5 8.6
2018-May-27 15:49N 66°42' E 012°50'62 7.9
2018-May-27 08:00N 67°37' E 014°02'4 8.2
2018-May-27 07:30N 67°41' E 014°09'100 7.4
2018-May-26 17:57N 68°57' E 017°05'4 7.7
2018-May-26 17:28N 68°59' E 017°12'8 7.4
2018-May-26 16:21N 69°06' E 017°27'3 7.5
2018-May-26 16:00N 69°07' E 017°34'4 7.3
2018-May-26 15:30N 69°08' E 017°43'  

Dump ship's entire track history